createdAt,value
2018-04-22T00:01:57.519Z,9.10
2018-04-22T00:04:25.741Z,7.90
2018-04-22T00:06:53.958Z,7.27
2018-04-22T00:09:22.172Z,6.57
2018-04-22T00:11:50.401Z,6.67
2018-04-22T00:14:18.646Z,7.03
2018-04-22T00:16:46.950Z,6.93
2018-04-22T00:19:15.925Z,6.93
2018-04-22T00:21:44.937Z,6.57
2018-04-22T00:24:13.944Z,7.40
2018-04-22T00:26:42.945Z,6.73
2018-04-22T00:29:11.980Z,7.03
2018-04-22T00:31:40.211Z,7.07
2018-04-22T00:34:08.431Z,7.40
2018-04-22T00:36:36.646Z,6.50
2018-04-22T00:39:04.873Z,7.23
2018-04-22T00:41:33.870Z,7.30
2018-04-22T00:44:02.081Z,7.20
2018-04-22T00:46:30.305Z,7.43
2018-04-22T00:48:58.524Z,7.33
2018-04-22T00:51:26.740Z,6.57
2018-04-22T00:54:06.861Z,7.10
2018-04-22T00:56:35.093Z,6.90
2018-04-22T00:59:03.309Z,6.90
2018-04-22T01:01:32.300Z,7.33
2018-04-22T01:04:00.575Z,7.37
2018-04-22T01:06:28.883Z,6.87
2018-04-22T01:08:57.046Z,7.23
2018-04-22T01:11:25.750Z,6.97
2018-04-22T01:13:54.038Z,7.20
2018-04-22T01:16:22.272Z,7.43
2018-04-22T01:18:50.523Z,7.10
2018-04-22T01:21:18.747Z,7.00
2018-04-22T01:23:47.031Z,6.90
2018-04-22T01:26:16.239Z,7.27
2018-04-22T01:28:44.526Z,7.73
2018-04-22T01:31:13.515Z,7.23
2018-04-22T01:33:41.781Z,7.60
2018-04-22T01:36:10.014Z,8.10
2018-04-22T01:38:39.014Z,7.40
2018-04-22T01:41:07.992Z,7.50
2018-04-22T01:43:36.226Z,7.10
2018-04-22T01:46:04.473Z,7.53
2018-04-22T01:48:32.707Z,7.17
2018-04-22T01:51:00.922Z,7.37
2018-04-22T01:53:29.163Z,6.87
2018-04-22T01:55:58.155Z,7.37
2018-04-22T01:58:26.414Z,7.27
2018-04-22T02:00:54.750Z,7.73
2018-04-22T02:03:23.729Z,8.00
2018-04-22T02:05:51.952Z,7.53
2018-04-22T02:08:20.209Z,7.50
2018-04-22T02:10:48.441Z,7.43
2018-04-22T02:13:16.692Z,8.00
2018-04-22T02:15:44.935Z,7.60
2018-04-22T02:18:13.186Z,7.97
2018-04-22T02:20:42.209Z,7.70
2018-04-22T02:23:10.442Z,7.43
2018-04-22T02:25:38.661Z,7.07
2018-04-22T02:28:07.656Z,7.23
2018-04-22T02:30:35.873Z,7.37
2018-04-22T02:33:04.145Z,7.70
2018-04-22T02:35:33.117Z,7.57
2018-04-22T02:38:01.345Z,7.90
2018-04-22T02:40:29.569Z,7.30
2018-04-22T02:42:57.827Z,6.80
2018-04-22T02:45:26.025Z,6.70
2018-04-22T02:47:54.357Z,6.73
2018-04-22T02:50:22.549Z,6.63
2018-04-22T02:52:50.768Z,6.63
2018-04-22T02:55:19.761Z,7.47
2018-04-22T02:57:48.759Z,6.93
2018-04-22T03:00:16.999Z,7.27
2018-04-22T03:02:45.255Z,7.10
2018-04-22T03:05:14.289Z,7.67
2018-04-22T03:07:42.481Z,6.30
2018-04-22T03:10:10.752Z,6.77
2018-04-22T03:12:39.711Z,7.30
2018-04-22T03:15:08.002Z,7.40
2018-04-22T03:17:36.232Z,7.20
2018-04-22T03:20:04.446Z,8.27
2018-04-22T03:22:32.678Z,6.87
2018-04-22T03:25:01.657Z,7.47
2018-04-22T03:27:29.883Z,8.00
2018-04-22T03:29:58.873Z,8.13
2018-04-22T03:32:27.876Z,7.77
2018-04-22T03:34:56.093Z,7.13
2018-04-22T03:37:24.311Z,6.47
2018-04-22T03:39:52.540Z,7.67
2018-04-22T03:42:20.757Z,7.47
2018-04-22T03:44:48.985Z,6.77
2018-04-22T03:47:17.202Z,7.87
2018-04-22T03:49:45.436Z,6.73
2018-04-22T03:52:13.664Z,6.77
2018-04-22T03:54:41.888Z,7.63
2018-04-22T03:57:10.110Z,7.10
2018-04-22T03:59:38.357Z,7.17
2018-04-22T04:02:07.339Z,7.47
2018-04-22T04:04:35.555Z,7.13
2018-04-22T04:07:04.556Z,7.73
2018-04-22T04:09:33.538Z,6.90
2018-04-22T04:12:01.748Z,7.47
2018-04-22T04:14:30.741Z,6.77
2018-04-22T04:16:59.733Z,7.20
2018-04-22T04:19:39.753Z,6.97
2018-04-22T04:22:20.010Z,7.10
2018-04-22T04:25:11.856Z,7.47
2018-04-22T04:27:48.377Z,7.13
2018-04-22T04:30:16.619Z,7.20
2018-04-22T04:32:44.850Z,7.57
2018-04-22T04:35:13.071Z,6.87
2018-04-22T04:37:41.313Z,6.70
2018-04-22T04:40:09.538Z,7.30
2018-04-22T04:42:37.793Z,6.53
2018-04-22T04:45:06.745Z,7.60
2018-04-22T04:47:35.725Z,7.03
2018-04-22T04:50:03.945Z,7.60
2018-04-22T04:52:32.932Z,7.60
2018-04-22T04:55:01.161Z,6.67
2018-04-22T04:57:29.372Z,7.40
2018-04-22T04:59:57.597Z,7.53
2018-04-22T05:02:25.806Z,7.70
2018-04-22T05:04:54.798Z,7.97
2018-04-22T05:07:23.016Z,8.23
2018-04-22T05:09:51.238Z,7.67
2018-04-22T05:12:19.494Z,7.70
2018-04-22T05:14:47.734Z,7.40
2018-04-22T05:17:15.983Z,7.30
2018-04-22T05:19:44.209Z,7.40
2018-04-22T05:22:12.450Z,7.30
2018-04-22T05:24:40.672Z,7.23
2018-04-22T05:27:08.889Z,7.53
2018-04-22T05:29:37.882Z,8.67
2018-04-22T05:32:06.096Z,8.93
2018-04-22T05:34:34.320Z,9.20
2018-04-22T05:37:02.545Z,9.43
2018-04-22T05:39:30.768Z,8.33
2018-04-22T05:41:59.001Z,8.23
2018-04-22T05:44:27.230Z,7.73
2018-04-22T05:46:56.297Z,7.33
2018-04-22T05:49:24.512Z,7.80
2018-04-22T05:51:52.739Z,7.43
2018-04-22T05:54:20.974Z,7.13
2018-04-22T05:56:49.224Z,7.00
2018-04-22T05:59:17.506Z,6.30
2018-04-22T06:01:45.735Z,6.10
2018-04-22T06:04:13.968Z,6.37
2018-04-22T06:06:42.195Z,5.97
2018-04-22T06:09:10.404Z,6.83
2018-04-22T06:11:38.709Z,6.20
2018-04-22T06:14:07.697Z,5.87
2018-04-22T06:16:35.932Z,6.00
2018-04-22T06:19:04.264Z,6.03
2018-04-22T06:21:32.442Z,5.40
2018-04-22T06:24:00.670Z,5.90
2018-04-22T06:26:28.902Z,5.77
2018-04-22T06:28:57.123Z,5.80
2018-04-22T06:31:25.348Z,5.57
2018-04-22T06:33:54.321Z,4.87
2018-04-22T06:36:22.573Z,4.80
2018-04-22T06:38:50.797Z,4.60
2018-04-22T06:41:19.016Z,4.60
2018-04-22T06:43:48.051Z,4.53
2018-04-22T06:46:16.262Z,4.47
2018-04-22T06:48:45.292Z,4.73
2018-04-22T06:51:13.549Z,4.33
2018-04-22T06:53:42.652Z,5.00
2018-04-22T06:56:10.867Z,4.23
2018-04-22T06:58:39.117Z,5.37
2018-04-22T07:01:07.448Z,4.63
2018-04-22T07:03:35.640Z,5.53
2018-04-22T07:06:05.816Z,3.70
2018-04-22T07:08:34.033Z,4.00
2018-04-22T07:11:02.277Z,3.87
2018-04-22T07:13:31.289Z,4.77
2018-04-22T07:15:59.546Z,4.37
2018-04-22T07:18:28.541Z,4.50
2018-04-22T07:20:56.815Z,4.40
2018-04-22T07:23:25.034Z,4.17
2018-04-22T07:25:53.260Z,4.30
2018-04-22T07:28:22.256Z,4.00
2018-04-22T07:30:51.649Z,4.20
2018-04-22T07:33:19.920Z,3.37
2018-04-22T07:35:48.181Z,3.60
2018-04-22T07:38:16.426Z,3.20
2018-04-22T07:40:45.535Z,3.43
2018-04-22T07:43:13.843Z,3.40
2018-04-22T07:45:42.125Z,3.50
2018-04-22T07:48:10.348Z,3.67
2018-04-22T07:50:38.560Z,3.33
2018-04-22T07:53:06.773Z,3.50
2018-04-22T07:55:35.016Z,3.77
2018-04-22T07:58:04.016Z,3.77
2018-04-22T08:00:32.970Z,3.70
2018-04-22T08:03:02.187Z,3.70
2018-04-22T08:05:31.189Z,3.20
2018-04-22T08:08:00.200Z,3.50
2018-04-22T08:10:29.173Z,2.87
2018-04-22T08:12:57.998Z,4.30
2018-04-22T08:15:26.980Z,3.53
2018-04-22T08:17:55.736Z,2.30
2018-04-22T08:20:24.001Z,2.50
2018-04-22T08:22:52.915Z,3.63
2018-04-22T08:25:21.736Z,2.33
2018-04-22T08:27:49.997Z,4.47
2018-04-22T08:30:18.207Z,4.67
2018-04-22T08:32:47.680Z,3.40
2018-04-22T08:35:15.936Z,3.70
2018-04-22T08:37:44.146Z,2.77
2018-04-22T08:40:12.391Z,2.80
2018-04-22T08:42:41.362Z,2.33
2018-04-22T08:45:10.573Z,3.63
2018-04-22T08:47:39.552Z,3.60
2018-04-22T08:50:08.919Z,3.90
2018-04-22T08:52:37.716Z,3.83
2018-04-22T08:55:07.120Z,4.33
2018-04-22T08:57:35.350Z,4.07
2018-04-22T09:00:03.566Z,5.30
2018-04-22T09:02:31.778Z,3.50
2018-04-22T09:05:00.067Z,3.63
2018-04-22T09:07:29.039Z,3.03
2018-04-22T09:09:57.258Z,3.33
2018-04-22T09:12:28.457Z,2.80
2018-04-22T09:14:56.677Z,2.93
2018-04-22T09:17:24.902Z,3.60
2018-04-22T09:19:53.121Z,4.67
2018-04-22T09:22:22.273Z,3.17
2018-04-22T09:24:50.544Z,2.40
2018-04-22T09:27:18.729Z,2.80
2018-04-22T09:29:46.961Z,2.70
2018-04-22T09:32:15.201Z,2.13
2018-04-22T09:34:43.477Z,2.80
2018-04-22T09:37:11.756Z,2.57
2018-04-22T09:39:40.016Z,2.70
2018-04-22T09:42:08.266Z,3.03
2018-04-22T09:44:36.672Z,2.27
2018-04-22T09:47:05.597Z,2.50
2018-04-22T09:49:33.856Z,2.10
2018-04-22T09:52:02.076Z,2.50
2018-04-22T09:54:31.049Z,3.10
2018-04-22T09:56:59.293Z,2.90
2018-04-22T09:59:27.527Z,2.67
2018-04-22T10:01:55.730Z,2.57
2018-04-22T10:04:30.836Z,2.87
2018-04-22T10:06:59.260Z,2.60
2018-04-22T10:09:27.454Z,2.80
2018-04-22T10:11:55.705Z,3.67
2018-04-22T10:14:23.970Z,3.23
2018-04-22T10:16:52.190Z,2.30
2018-04-22T10:19:20.412Z,2.60
2018-04-22T10:21:49.405Z,3.63
2018-04-22T10:24:17.622Z,2.50
2018-04-22T10:26:45.849Z,3.10
2018-04-22T10:29:14.083Z,2.97
2018-04-22T10:31:43.099Z,4.23
2018-04-22T10:34:11.333Z,2.90
2018-04-22T10:36:39.708Z,2.93
2018-04-22T10:39:07.897Z,3.73
2018-04-22T10:41:36.142Z,3.80
2018-04-22T10:44:04.470Z,3.87
2018-04-22T10:46:32.656Z,3.50
2018-04-22T10:49:00.878Z,3.50
2018-04-22T10:51:29.090Z,4.10
2018-04-22T10:53:58.091Z,3.37
2018-04-22T10:56:26.297Z,4.33
2018-04-22T10:58:54.514Z,4.10
2018-04-22T11:01:22.744Z,2.33
2018-04-22T11:03:51.010Z,2.50
2018-04-22T11:06:19.221Z,3.67
2018-04-22T11:08:47.445Z,3.33
2018-04-22T11:11:15.734Z,2.83
2018-04-22T11:13:43.991Z,3.97
2018-04-22T11:16:12.254Z,2.97
2018-04-22T11:18:40.494Z,3.20
2018-04-22T11:21:08.791Z,3.40
2018-04-22T11:23:38.605Z,3.33
2018-04-22T11:26:07.071Z,2.87
2018-04-22T11:28:35.839Z,2.70
2018-04-22T11:31:06.797Z,2.73
2018-04-22T11:33:35.045Z,4.20
2018-04-22T11:36:03.290Z,3.57
2018-04-22T11:38:31.485Z,2.67
2018-04-22T11:41:00.448Z,2.03
2018-04-22T11:43:28.837Z,2.63
2018-04-22T11:45:57.060Z,2.20
2018-04-22T11:48:25.266Z,1.80
2018-04-22T11:50:54.248Z,2.13
2018-04-22T11:53:22.477Z,2.10
2018-04-22T11:55:51.490Z,1.90
2018-04-22T11:58:19.701Z,3.13
2018-04-22T12:00:49.417Z,2.60
2018-04-22T12:03:23.032Z,2.20
2018-04-22T12:05:51.981Z,2.53
2018-04-22T12:08:20.196Z,2.10
2018-04-22T12:10:49.199Z,2.90
2018-04-22T12:13:18.197Z,2.50
2018-04-22T12:15:47.197Z,4.07
2018-04-22T12:18:15.418Z,5.20
2018-04-22T12:20:43.708Z,3.50
2018-04-22T12:23:12.691Z,2.17
2018-04-22T12:25:41.694Z,1.90
2018-04-22T12:28:10.739Z,3.13
2018-04-22T12:30:38.972Z,5.47
2018-04-22T12:33:07.228Z,2.40
2018-04-22T12:35:35.556Z,2.10
2018-04-22T12:38:03.769Z,2.27
2018-04-22T12:40:31.973Z,2.30
2018-04-22T12:43:00.237Z,2.63
2018-04-22T12:45:28.479Z,2.47
2018-04-22T12:47:56.692Z,2.73
2018-04-22T12:50:24.914Z,2.40
2018-04-22T12:52:53.135Z,2.83
2018-04-22T12:55:21.340Z,2.80
2018-04-22T12:57:49.571Z,2.20
2018-04-22T13:00:18.545Z,2.83
2018-04-22T13:02:46.756Z,2.77
2018-04-22T13:05:15.753Z,3.20
2018-04-22T13:07:44.742Z,2.70
2018-04-22T13:10:12.965Z,2.80
2018-04-22T13:12:42.978Z,2.73
2018-04-22T13:15:12.093Z,2.90
2018-04-22T13:17:41.146Z,2.20
2018-04-22T13:20:09.369Z,2.10
2018-04-22T13:22:37.622Z,2.67
2018-04-22T13:25:05.823Z,8.13
2018-04-22T13:27:34.057Z,2.83
2018-04-22T13:30:02.260Z,2.10
2018-04-22T13:32:30.481Z,2.67
2018-04-22T13:34:58.748Z,2.73
2018-04-22T13:37:31.236Z,2.53
2018-04-22T13:40:00.837Z,2.77
2018-04-22T13:42:29.819Z,2.33
2018-04-22T13:44:58.055Z,2.50
2018-04-22T13:47:26.265Z,2.83
2018-04-22T13:49:54.489Z,2.53
2018-04-22T13:52:23.472Z,2.77
2018-04-22T13:54:51.778Z,2.77
2018-04-22T13:57:19.938Z,2.10
2018-04-22T13:59:48.141Z,1.80
2018-04-22T14:02:17.129Z,1.80
2018-04-22T14:04:45.348Z,2.13
2018-04-22T14:07:14.339Z,2.17
2018-04-22T14:09:42.714Z,2.77
2018-04-22T14:12:11.047Z,1.73
2018-04-22T14:14:39.287Z,2.17
2018-04-22T14:17:07.632Z,1.93
2018-04-22T14:19:35.849Z,2.00
2018-04-22T14:22:04.065Z,1.70
2018-04-22T14:24:32.295Z,1.80
2018-04-22T14:27:00.502Z,2.13
2018-04-22T14:29:28.730Z,1.60
2018-04-22T14:31:56.947Z,1.60
2018-04-22T14:34:25.170Z,1.70
2018-04-22T14:36:53.383Z,1.70
2018-04-22T14:39:23.125Z,1.70
2018-04-22T14:41:52.130Z,2.93
2018-04-22T14:44:32.957Z,1.70
2018-04-22T14:47:01.179Z,1.90
2018-04-22T14:49:29.417Z,1.80
2018-04-22T14:51:57.663Z,1.60
2018-04-22T14:54:25.861Z,2.30
2018-04-22T14:56:54.080Z,2.53
2018-04-22T14:59:22.296Z,1.50
2018-04-22T15:01:50.539Z,2.00
2018-04-22T15:04:18.728Z,1.70
2018-04-22T15:06:47.705Z,1.90
2018-04-22T15:09:15.921Z,1.70
2018-04-22T15:11:44.907Z,2.30
2018-04-22T15:14:13.931Z,1.60
2018-04-22T15:16:42.946Z,1.60
2018-04-22T15:19:11.931Z,1.60
2018-04-22T15:21:40.149Z,1.60
2018-04-22T15:24:08.385Z,1.40
2018-04-22T15:26:36.703Z,1.70
2018-04-22T15:29:05.757Z,3.03
2018-04-22T15:31:33.965Z,2.00
2018-04-22T15:34:02.187Z,1.83
2018-04-22T15:36:31.169Z,1.50
2018-04-22T15:38:59.788Z,1.53
2018-04-22T15:41:28.766Z,1.70
2018-04-22T15:43:56.985Z,2.43
2018-04-22T15:46:26.062Z,2.27
2018-04-22T15:48:54.304Z,1.93
2018-04-22T15:51:22.514Z,1.70
2018-04-22T15:53:56.615Z,1.90
2018-04-22T15:56:24.836Z,1.63
2018-04-22T15:58:53.049Z,1.63
2018-04-22T16:01:21.598Z,1.60
2018-04-22T16:03:51.406Z,1.40
2018-04-22T16:06:20.406Z,3.80
2018-04-22T16:08:49.378Z,1.80
2018-04-22T16:11:17.686Z,1.60
2018-04-22T16:13:46.676Z,1.50
2018-04-22T16:16:14.892Z,3.63
2018-04-22T16:18:43.908Z,1.60
2018-04-22T16:21:12.240Z,1.43
2018-04-22T16:23:41.157Z,1.60
2018-04-22T16:26:10.249Z,1.57
2018-04-22T16:28:38.661Z,1.67
2018-04-22T16:31:06.884Z,1.80
2018-04-22T16:33:35.552Z,1.60
2018-04-22T16:36:03.729Z,1.60
2018-04-22T16:38:31.954Z,1.40
2018-04-22T16:41:00.207Z,1.63
2018-04-22T16:43:28.413Z,1.80
2018-04-22T16:45:57.396Z,1.57
2018-04-22T16:48:25.721Z,1.90
2018-04-22T16:50:54.812Z,1.60
2018-04-22T16:53:23.922Z,1.63
2018-04-22T16:55:52.950Z,1.50
2018-04-22T16:58:21.133Z,1.73
2018-04-22T17:00:50.118Z,1.60
2018-04-22T17:03:18.441Z,1.50
2018-04-22T17:05:46.656Z,1.23
2018-04-22T17:08:14.877Z,1.60
2018-04-22T17:10:43.124Z,1.60
2018-04-22T17:13:11.508Z,1.70
2018-04-22T17:15:41.877Z,1.87
2018-04-22T17:18:10.151Z,2.40
2018-04-22T17:20:38.392Z,1.50
2018-04-22T17:23:07.422Z,1.43
2018-04-22T17:25:35.657Z,1.57
2018-04-22T17:28:03.868Z,1.50
2018-04-22T17:30:32.850Z,1.50
2018-04-22T17:33:01.178Z,1.60
2018-04-22T17:35:29.492Z,1.80
2018-04-22T17:37:57.850Z,1.47
2018-04-22T17:40:26.846Z,1.50
2018-04-22T17:42:55.829Z,1.70
2018-04-22T17:45:24.057Z,1.50
2018-04-22T17:47:53.025Z,1.70
2018-04-22T17:50:21.251Z,1.67
2018-04-22T17:52:50.244Z,1.37
2018-04-22T17:55:19.228Z,1.43
2018-04-22T17:57:49.119Z,1.40
2018-04-22T18:00:17.365Z,1.30
2018-04-22T18:02:45.653Z,1.60
2018-04-22T18:05:14.642Z,1.50
2018-04-22T18:07:42.864Z,1.57
2018-04-22T18:10:11.869Z,1.27
2018-04-22T18:12:40.860Z,1.50
2018-04-22T18:15:10.513Z,1.47
2018-04-22T18:17:38.742Z,1.57
2018-04-22T18:20:07.550Z,1.60
2018-04-22T18:22:35.836Z,1.30
2018-04-22T18:25:04.037Z,1.60
2018-04-22T18:27:33.021Z,1.20
2018-04-22T18:30:01.569Z,1.67
2018-04-22T18:32:31.257Z,1.40
2018-04-22T18:35:02.221Z,1.40
2018-04-22T18:37:31.193Z,1.93
2018-04-22T18:40:00.173Z,1.60
2018-04-22T18:42:28.389Z,1.70
2018-04-22T18:44:57.392Z,1.43
2018-04-22T18:47:25.605Z,1.50
2018-04-22T18:49:53.830Z,1.53
2018-04-22T18:52:22.040Z,1.83
2018-04-22T18:54:50.246Z,1.53
2018-04-22T18:57:18.460Z,1.60
2018-04-22T18:59:53.075Z,1.70
2018-04-22T19:02:21.262Z,3.47
2018-04-22T19:04:49.496Z,2.17
2018-04-22T19:07:18.253Z,1.93
2018-04-22T19:09:46.460Z,4.20
2018-04-22T19:12:15.469Z,1.50
2018-04-22T19:14:44.467Z,1.90
2018-04-22T19:17:13.777Z,4.93
2018-04-22T19:19:45.880Z,2.10
2018-04-22T19:22:14.198Z,1.87
2018-04-22T19:24:42.428Z,2.13
2018-04-22T19:27:10.649Z,4.17
2018-04-22T19:29:39.697Z,1.90
2018-04-22T19:32:08.068Z,4.87
2018-04-22T19:34:36.507Z,3.30
2018-04-22T19:37:04.718Z,1.70
2018-04-22T19:39:33.705Z,1.67
2018-04-22T19:42:02.463Z,1.80
2018-04-22T19:44:30.693Z,1.43
2018-04-22T19:46:58.916Z,1.50
2018-04-22T19:49:30.416Z,5.03
2018-04-22T19:51:59.747Z,2.33
2018-04-22T19:54:29.309Z,1.93
2018-04-22T19:57:00.327Z,1.67
2018-04-22T19:59:31.562Z,1.93
2018-04-22T20:02:02.387Z,1.50
2018-04-22T20:04:33.294Z,1.70
2018-04-22T20:07:01.602Z,2.30
2018-04-22T20:09:30.584Z,2.20
2018-04-22T20:11:58.861Z,5.00
2018-04-22T20:14:27.102Z,2.93
2018-04-22T20:16:55.363Z,3.37
2018-04-22T20:19:25.321Z,6.27
2018-04-22T20:22:01.137Z,2.50
2018-04-22T20:24:29.415Z,10.37
2018-04-22T20:26:58.540Z,3.37
2018-04-22T20:29:32.138Z,6.07
2018-04-22T20:32:01.845Z,4.10
2018-04-22T20:34:30.568Z,5.40
2018-04-22T20:36:58.818Z,6.27
2018-04-22T20:39:33.286Z,5.40
2018-04-22T20:42:02.627Z,6.27
2018-04-22T20:44:31.486Z,6.93
2018-04-22T20:46:59.769Z,6.20
2018-04-22T20:49:36.616Z,6.37
2018-04-22T20:52:04.830Z,6.53
2018-04-22T20:54:33.566Z,5.63
2018-04-22T20:57:02.542Z,5.90
2018-04-22T20:59:30.756Z,7.00
2018-04-22T21:01:58.967Z,6.33
2018-04-22T21:04:27.201Z,6.27
2018-04-22T21:06:55.434Z,6.50
2018-04-22T21:09:23.649Z,7.07
2018-04-22T21:11:52.653Z,6.80
2018-04-22T21:14:22.649Z,6.90
2018-04-22T21:16:50.937Z,7.43
2018-04-22T21:19:19.135Z,7.17
2018-04-22T21:21:48.235Z,8.20
2018-04-22T21:24:16.438Z,8.00
2018-04-22T21:26:45.452Z,8.50
2018-04-22T21:29:13.681Z,7.00
2018-04-22T21:31:41.928Z,7.03
2018-04-22T21:34:10.921Z,6.90
2018-04-22T21:36:39.199Z,5.93
2018-04-22T21:39:07.524Z,5.17
2018-04-22T21:41:36.517Z,5.37
2018-04-22T21:44:05.527Z,4.90
2018-04-22T21:46:34.497Z,5.10
2018-04-22T21:49:02.721Z,4.90
2018-04-22T21:51:31.697Z,4.43
2018-04-22T21:53:59.909Z,5.03
2018-04-22T21:56:28.892Z,4.43
2018-04-22T21:58:57.122Z,5.37
2018-04-22T22:01:25.413Z,4.97
2018-04-22T22:03:53.676Z,4.97
2018-04-22T22:06:21.965Z,5.00
2018-04-22T22:08:50.993Z,4.97
2018-04-22T22:11:19.969Z,5.73
2018-04-22T22:13:48.184Z,5.63
2018-04-22T22:16:16.400Z,4.93
2018-04-22T22:18:44.619Z,5.50
2018-04-22T22:21:12.844Z,3.47
2018-04-22T22:23:41.827Z,5.37
2018-04-22T22:26:10.053Z,5.67
2018-04-22T22:28:38.332Z,3.33
2018-04-22T22:31:06.613Z,3.67
2018-04-22T22:33:35.602Z,4.93
2018-04-22T22:36:04.583Z,4.40
2018-04-22T22:38:32.797Z,3.80
2018-04-22T22:41:01.772Z,2.77
2018-04-22T22:43:29.989Z,4.90
2018-04-22T22:45:58.981Z,3.67
2018-04-22T22:48:27.207Z,5.20
2018-04-22T22:50:56.184Z,4.57
2018-04-22T22:53:24.405Z,5.90
2018-04-22T22:55:52.614Z,5.73
2018-04-22T22:58:20.832Z,5.70
2018-04-22T23:00:49.042Z,5.87
2018-04-22T23:03:17.321Z,5.20
2018-04-22T23:05:45.543Z,6.07
2018-04-22T23:08:13.794Z,5.77
2018-04-22T23:10:41.995Z,5.83
2018-04-22T23:13:10.970Z,5.93
2018-04-22T23:15:39.296Z,6.17
2018-04-22T23:18:08.287Z,5.73
2018-04-22T23:20:36.605Z,5.93
2018-04-22T23:23:05.610Z,5.57
2018-04-22T23:25:34.599Z,5.30
2018-04-22T23:28:03.598Z,5.53
2018-04-22T23:30:31.808Z,5.70
2018-04-22T23:33:00.025Z,5.63
2018-04-22T23:35:28.247Z,5.50
2018-04-22T23:37:56.482Z,6.27
2018-04-22T23:40:24.692Z,5.57
2018-04-22T23:42:52.917Z,6.03
2018-04-22T23:45:21.144Z,6.37
2018-04-22T23:47:49.345Z,6.10
2018-04-22T23:50:17.570Z,6.90
2018-04-22T23:52:45.809Z,6.10
2018-04-22T23:55:14.016Z,6.40
2018-04-22T23:57:42.230Z,6.73
